Terminal Aerodrome Forecast
Issued by NWS North Platte, NE

Home | Current Version | Previous Version | Text Only | Print | Product List | Glossary On
Versions: 1 2 3 4 5 6 7 8 9 10 11 12 13 14 15 16 17 18 19 20 21 22 23 24 25 26 27 28 29 30
000
FTUS43 KLBF 191239 AAA
TAFLBF
TAF AMD
KLBF 191239Z 1913/2012 VRB05KT P6SM BKN015
      TEMPO 1913/1915 SCT015
     FM191500 35009KT P6SM BKN050
     FM191800 35011G17KT P6SM BKN050
     FM200100 33008KT P6SM SCT250
     FM200600 30005KT P6SM SCT200=

USA.gov is the U.S. government's official web portal to all federal, state and local government web resources and services.